Imagination — C6FN2 — position and weather

sailwx.info

Track history (hours):
 
Tides and Currents Weather Stations Pressure Air Temp Water Temp Dewpoint Dewpoint Depression Visibility Wind Speed Wind Dir Waves Ship Positions

Imagination

Operator: Carnival Cruise Lines

Last reported at 2020-Apr-05 19:58 UTC. Time now 2020-Apr-05 22:49 UTC.
Position N 33°42' W 118°09'.

Type: Passenger vessel. MMSI: 309933000.

Date/timePositionNaut miles runAvg speedWind from/ knotsBaromVisibWave heightAir tempDewpointWater temp
2020-Apr-05 19:58N 33°42' W 118°09'0 0.0
2020-Apr-05 18:28N 33°42' W 118°09'0 0.0
2020-Apr-05 15:58N 33°42' W 118°09'0 0.0
2020-Apr-05 14:58N 33°42' W 118°09'0 0.0
2020-Apr-05 14:28N 33°42' W 118°09'613.4
2020-Apr-05 14:00N 33°36' W 118°06'678.1 250 / 81010.0 5.4 14.0 8.5
2020-Apr-05 13:55N 33°42' W 118°09'0 0.0
2020-Apr-05 13:28N 33°42' W 118°09'0 0.0
2020-Apr-05 12:58N 33°42' W 118°09'0 0.0
2020-Apr-05 10:55N 33°42' W 118°09'0 0.0
2020-Apr-05 07:58N 33°42' W 118°09'0 0.0
2020-Apr-05 07:25N 33°42' W 118°09'0 0.0
2020-Apr-05 07:01N 33°42' W 118°09'0 0.0
2020-Apr-05 06:28N 33°42' W 118°09'0 0.0
2020-Apr-05 01:28N 33°42' W 118°09'0 0.0
2020-Apr-04 23:28N 33°42' W 118°09'0 0.0
2020-Apr-04 21:58N 33°42' W 118°09'0 0.0
2020-Apr-04 21:28N 33°42' W 118°09'0 0.0
2020-Apr-04 19:58N 33°42' W 118°09'0 0.0
2020-Apr-04 19:28N 33°42' W 118°09'0 0.0
2020-Apr-04 16:58N 33°42' W 118°09'0 0.0
2020-Apr-04 15:55N 33°42' W 118°09'0 0.0
2020-Apr-04 14:58N 33°42' W 118°09'0 0.0
2020-Apr-04 14:28N 33°42' W 118°09'0 0.0
2020-Apr-04 13:58N 33°42' W 118°09'0 0.0
2020-Apr-04 13:25N 33°42' W 118°09'0 0.0
2020-Apr-04 11:28N 33°42' W 118°09'0 0.0
2020-Apr-04 10:58N 33°42' W 118°09'0 0.0
2020-Apr-04 10:28N 33°42' W 118°09'0 0.0
2020-Apr-04 09:58N 33°42' W 118°09'0 0.0
2020-Apr-04 07:28N 33°42' W 118°09'0 0.0
2020-Apr-04 03:58N 33°42' W 118°09'0 0.0
2020-Apr-04 02:58N 33°42' W 118°09'0 0.0
2020-Apr-04 02:28N 33°42' W 118°09'0 0.0
2020-Apr-04 00:58N 33°42' W 118°09'0 0.0
2020-Apr-03 22:28N 33°42' W 118°09'0 0.1
2020-Apr-03 21:55N 33°42' W 118°09'0 0.1
2020-Apr-03 21:28N 33°42' W 118°09'0 0.1
2020-Apr-03 20:28N 33°42' W 118°09'0 0.0
2020-Apr-03 19:28N 33°42' W 118°09'613.5
2020-Apr-03 19:00N 33°36' W 118°06'6 2.5 170 / 101013.0 1.1 15.0 7.6
2020-Apr-03 16:28N 33°42' W 118°09'0 0.0
2020-Apr-03 15:58N 33°42' W 118°09'0 0.0
2020-Apr-03 15:28N 33°42' W 118°09'0 0.0
2020-Apr-03 12:58N 33°42' W 118°09'0 0.0
2020-Apr-03 10:58N 33°42' W 118°09'0 0.0
2020-Apr-03 09:58N 33°42' W 118°09'0 0.0
2020-Apr-03 08:01N 33°42' W 118°09'0 0.1
2020-Apr-03 07:28N 33°42' W 118°09'0 0.0
2020-Apr-03 05:55N 33°42' W 118°09'0 0.0
2020-Apr-03 05:25N 33°42' W 118°09'0 0.0
2020-Apr-03 04:58N 33°42' W 118°09'0 0.0
2020-Apr-03 03:58N 33°42' W 118°09'0 0.0
2020-Apr-03 03:28N 33°42' W 118°09'0 0.0
2020-Apr-03 02:28N 33°42' W 118°09'22 4.4
2020-Apr-02 21:31N 33°21' W 118°03'4 7.3
2020-Apr-02 21:00N 33°17' W 118°01'9 5.9
2020-Apr-02 19:30N 33°13' W 117°52'4 7.7
2020-Apr-02 19:01N 33°15' W 117°56'3 5.6
2020-Apr-02 18:31N 33°16' W 117°59'610.9
2020-Apr-02 18:00N 33°12' W 117°54'4 1.6 240 / 81012.0 1.1 16.0 8.8
2020-Apr-02 15:30N 33°16' W 117°52'5 2.3
2020-Apr-02 13:31N 33°12' W 117°49'8 5.1
2020-Apr-02 12:01N 33°15' W 117°57'3 2.6
2020-Apr-02 11:01N 33°16' W 117°55'2 4.2
2020-Apr-02 10:30N 33°15' W 117°53'4 4.2
2020-Apr-02 09:31N 33°13' W 117°48'3 1.8
2020-Apr-02 08:00N 33°11' W 117°49'2 4.9
2020-Apr-02 07:31N 33°12' W 117°51'5 2.4
2020-Apr-02 05:30N 33°16' W 117°54'17 5.6
2020-Apr-02 02:30N 33°02' W 117°43'4 8.5
2020-Apr-02 02:01N 32°60' W 117°47'6 2.1
2020-Apr-01 23:00N 32°54' W 117°45'4 7.2
2020-Apr-01 22:30N 32°57' W 117°43'9 8.8
2020-Apr-01 21:30N 33°06' W 117°43'4 8.3
2020-Apr-01 21:00N 33°10' W 117°44'21 8.3
2020-Apr-01 18:31N 33°19' W 118°06'510.1
2020-Apr-01 18:01N 33°24' W 118°08'9 9.1
2020-Apr-01 17:00N 33°33' W 118°12'5 9.3
2020-Apr-01 16:31N 33°37' W 118°13'6 0.9
2020-Apr-01 10:30N 33°42' W 118°09'0 0.0
2020-Apr-01 08:00N 33°42' W 118°09'0 0.0
2020-Apr-01 07:30N 33°42' W 118°09'0 0.0
2020-Mar-31 22:00N 33°42' W 118°09'0 0.0
2020-Mar-31 21:00N 33°42' W 118°09'0 0.0
2020-Mar-31 20:30N 33°42' W 118°09'0 0.0
2020-Mar-31 18:00N 33°42' W 118°09'0 0.0
2020-Mar-31 16:30N 33°42' W 118°09'0 0.0
2020-Mar-31 16:00N 33°42' W 118°09'4 0.8
2020-Mar-31 11:29N 33°45' W 118°11'0 0.0
2020-Mar-31 10:59N 33°45' W 118°11'0 0.0
2020-Mar-31 09:59N 33°45' W 118°11'0 0.0
2020-Mar-31 09:29N 33°45' W 118°11'0 0.0
2020-Mar-31 08:29N 33°45' W 118°11'0 0.0
2020-Mar-31 07:29N 33°45' W 118°11'0 0.0
2020-Mar-31 06:29N 33°45' W 118°11'0 0.0
2020-Mar-31 04:59N 33°45' W 118°11'0 0.0
2020-Mar-31 04:29N 33°45' W 118°11'0 0.0
2020-Mar-31 03:29N 33°45' W 118°11'0 0.0
2020-Mar-31 00:59N 33°45' W 118°11'0 0.0
2020-Mar-30 23:29N 33°45' W 118°11'0 0.0
2020-Mar-30 21:29N 33°45' W 118°11'0 0.0
2020-Mar-30 20:59N 33°45' W 118°11'0 0.0
2020-Mar-30 17:29N 33°45' W 118°11'0 0.0
2020-Mar-30 16:29N 33°45' W 118°11'0 0.0
2020-Mar-30 14:29N 33°45' W 118°11'0 0.0
2020-Mar-30 14:00N 33°45' W 118°11'11 5.6
2020-Mar-30 12:00N 33°34' W 118°09'10 6.8
2020-Mar-30 10:30N 33°24' W 118°05'15 7.5
2020-Mar-30 08:30N 33°13' W 117°54'4 7.6
2020-Mar-30 08:00N 33°10' W 117°50'7 3.3
2020-Mar-30 06:00N 33°10' W 117°58'3 5.1
2020-Mar-30 05:30N 33°12' W 118°01'4 3.9
2020-Mar-30 04:30N 33°13' W 117°56'9 3.5
2020-Mar-30 02:00N 33°10' W 117°47'2 3.6
2020-Mar-30 01:30N 33°09' W 117°46'12 3.9
2020-Mar-29 22:30N 32°57' W 117°43'8 7.8
2020-Mar-29 21:30N 33°05' W 117°43'7 6.8
2020-Mar-29 20:30N 33°11' W 117°47'8 7.8
2020-Mar-29 19:30N 33°15' W 117°55'4 7.7
2020-Mar-29 19:00N 33°16' W 117°59'8 7.9
2020-Mar-29 18:00N 33°21' W 118°07'4 8.8
2020-Mar-29 17:30N 33°25' W 118°09'9 9.0
2020-Mar-29 16:30N 33°34' W 118°12'8 4.1
2020-Mar-29 14:29N 33°41' W 118°09'0 0.0
2020-Mar-29 13:29N 33°41' W 118°09'0 0.0
2020-Mar-29 12:59N 33°41' W 118°09'0 0.0
2020-Mar-29 12:29N 33°41' W 118°09'0 0.0
2020-Mar-29 11:29N 33°41' W 118°09'0 0.0
2020-Mar-29 08:59N 33°41' W 118°09'0 0.0
2020-Mar-29 03:29N 33°41' W 118°09'0 0.0
2020-Mar-29 02:29N 33°41' W 118°09'0 0.0
2020-Mar-28 23:59N 33°41' W 118°09'0 0.0
2020-Mar-28 23:29N 33°41' W 118°09'0 0.0
2020-Mar-28 20:59N 33°41' W 118°09'0 0.0
2020-Mar-28 19:29N 33°41' W 118°09'0 0.0
2020-Mar-28 15:29N 33°41' W 118°09'0 0.0
2020-Mar-28 12:29N 33°41' W 118°09'0 0.0
2020-Mar-28 11:59N 33°41' W 118°09'0 0.0
2020-Mar-28 11:26N 33°41' W 118°09'0 0.0
2020-Mar-28 08:29N 33°41' W 118°09'0 0.0
2020-Mar-28 06:29N 33°41' W 118°09'0 0.0
2020-Mar-28 05:59N 33°41' W 118°09'0 0.0
2020-Mar-28 02:59N 33°41' W 118°09'0 0.0
2020-Mar-28 02:29N 33°41' W 118°09'0 0.0
2020-Mar-28 01:59N 33°41' W 118°09'0 0.0
2020-Mar-28 00:59N 33°41' W 118°09'0 0.0
2020-Mar-27 22:29N 33°41' W 118°09'0 0.0
2020-Mar-27 21:29N 33°41' W 118°09'0 0.0
2020-Mar-27 16:59N 33°41' W 118°09'0 0.0
2020-Mar-27 16:29N 33°41' W 118°09'0 0.1
2020-Mar-27 15:59N 33°41' W 118°09'2 1.7
2020-Mar-27 15:01N 33°40' W 118°09'12 7.8
2020-Mar-27 13:30N 33°28' W 118°06'8 8.0
2020-Mar-27 12:30N 33°21' W 118°03'4 7.5
2020-Mar-27 12:00N 33°18' W 118°00'12 7.9
2020-Mar-27 10:30N 33°09' W 117°51'4 7.5
2020-Mar-27 10:00N 33°06' W 117°48'13 6.3
2020-Mar-27 08:00N 32°55' W 117°40'16 7.9
2020-Mar-27 06:00N 33°06' W 117°53'3 1.2
2020-Mar-27 03:30N 33°04' W 117°51'8 1.3
2020-Mar-26 21:31N 32°57' W 117°46'4 8.8
2020-Mar-26 21:00N 33°01' W 117°49'  
Track history (hours):
 
Tides and Currents Weather Stations Pressure Air Temp Water Temp Dewpoint Dewpoint Depression Visibility Wind Speed Wind Dir Waves Ship Positions

Imagination

Operator: Carnival Cruise Lines

Last reported at 2020-Apr-05 19:58 UTC. Time now 2020-Apr-05 22:49 UTC.
Position N 33°42' W 118°09'.

Type: Passenger vessel. MMSI: 309933000.

Date/timePositionNaut miles runAvg speedWind from/ knotsBaromVisibWave heightAir tempDewpointWater temp
2020-Apr-05 19:58N 33°42' W 118°09'0 0.0
2020-Apr-05 18:28N 33°42' W 118°09'0 0.0
2020-Apr-05 15:58N 33°42' W 118°09'0 0.0
2020-Apr-05 14:58N 33°42' W 118°09'0 0.0
2020-Apr-05 14:28N 33°42' W 118°09'613.4
2020-Apr-05 14:00N 33°36' W 118°06'678.1 250 / 81010.0 5.4 14.0 8.5
2020-Apr-05 13:55N 33°42' W 118°09'0 0.0
2020-Apr-05 13:28N 33°42' W 118°09'0 0.0
2020-Apr-05 12:58N 33°42' W 118°09'0 0.0
2020-Apr-05 10:55N 33°42' W 118°09'0 0.0
2020-Apr-05 07:58N 33°42' W 118°09'0 0.0
2020-Apr-05 07:25N 33°42' W 118°09'0 0.0
2020-Apr-05 07:01N 33°42' W 118°09'0 0.0
2020-Apr-05 06:28N 33°42' W 118°09'0 0.0
2020-Apr-05 01:28N 33°42' W 118°09'0 0.0
2020-Apr-04 23:28N 33°42' W 118°09'0 0.0
2020-Apr-04 21:58N 33°42' W 118°09'0 0.0
2020-Apr-04 21:28N 33°42' W 118°09'0 0.0
2020-Apr-04 19:58N 33°42' W 118°09'0 0.0
2020-Apr-04 19:28N 33°42' W 118°09'0 0.0
2020-Apr-04 16:58N 33°42' W 118°09'0 0.0
2020-Apr-04 15:55N 33°42' W 118°09'0 0.0
2020-Apr-04 14:58N 33°42' W 118°09'0 0.0
2020-Apr-04 14:28N 33°42' W 118°09'0 0.0
2020-Apr-04 13:58N 33°42' W 118°09'0 0.0
2020-Apr-04 13:25N 33°42' W 118°09'0 0.0
2020-Apr-04 11:28N 33°42' W 118°09'0 0.0
2020-Apr-04 10:58N 33°42' W 118°09'0 0.0
2020-Apr-04 10:28N 33°42' W 118°09'0 0.0
2020-Apr-04 09:58N 33°42' W 118°09'0 0.0
2020-Apr-04 07:28N 33°42' W 118°09'0 0.0
2020-Apr-04 03:58N 33°42' W 118°09'0 0.0
2020-Apr-04 02:58N 33°42' W 118°09'0 0.0
2020-Apr-04 02:28N 33°42' W 118°09'0 0.0
2020-Apr-04 00:58N 33°42' W 118°09'0 0.0
2020-Apr-03 22:28N 33°42' W 118°09'0 0.1
2020-Apr-03 21:55N 33°42' W 118°09'0 0.1
2020-Apr-03 21:28N 33°42' W 118°09'0 0.1
2020-Apr-03 20:28N 33°42' W 118°09'0 0.0
2020-Apr-03 19:28N 33°42' W 118°09'613.5
2020-Apr-03 19:00N 33°36' W 118°06'6 2.5 170 / 101013.0 1.1 15.0 7.6
2020-Apr-03 16:28N 33°42' W 118°09'0 0.0
2020-Apr-03 15:58N 33°42' W 118°09'0 0.0
2020-Apr-03 15:28N 33°42' W 118°09'0 0.0
2020-Apr-03 12:58N 33°42' W 118°09'0 0.0
2020-Apr-03 10:58N 33°42' W 118°09'0 0.0
2020-Apr-03 09:58N 33°42' W 118°09'0 0.0
2020-Apr-03 08:01N 33°42' W 118°09'0 0.1
2020-Apr-03 07:28N 33°42' W 118°09'0 0.0
2020-Apr-03 05:55N 33°42' W 118°09'0 0.0
2020-Apr-03 05:25N 33°42' W 118°09'0 0.0
2020-Apr-03 04:58N 33°42' W 118°09'0 0.0
2020-Apr-03 03:58N 33°42' W 118°09'0 0.0
2020-Apr-03 03:28N 33°42' W 118°09'0 0.0
2020-Apr-03 02:28N 33°42' W 118°09'22 4.4
2020-Apr-02 21:31N 33°21' W 118°03'4 7.3
2020-Apr-02 21:00N 33°17' W 118°01'9 5.9
2020-Apr-02 19:30N 33°13' W 117°52'4 7.7
2020-Apr-02 19:01N 33°15' W 117°56'3 5.6
2020-Apr-02 18:31N 33°16' W 117°59'610.9
2020-Apr-02 18:00N 33°12' W 117°54'4 1.6 240 / 81012.0 1.1 16.0 8.8
2020-Apr-02 15:30N 33°16' W 117°52'5 2.3
2020-Apr-02 13:31N 33°12' W 117°49'8 5.1
2020-Apr-02 12:01N 33°15' W 117°57'3 2.6
2020-Apr-02 11:01N 33°16' W 117°55'2 4.2
2020-Apr-02 10:30N 33°15' W 117°53'4 4.2
2020-Apr-02 09:31N 33°13' W 117°48'3 1.8
2020-Apr-02 08:00N 33°11' W 117°49'2 4.9
2020-Apr-02 07:31N 33°12' W 117°51'5 2.4
2020-Apr-02 05:30N 33°16' W 117°54'17 5.6
2020-Apr-02 02:30N 33°02' W 117°43'4 8.5
2020-Apr-02 02:01N 32°60' W 117°47'6 2.1
2020-Apr-01 23:00N 32°54' W 117°45'4 7.2
2020-Apr-01 22:30N 32°57' W 117°43'9 8.8
2020-Apr-01 21:30N 33°06' W 117°43'4 8.3
2020-Apr-01 21:00N 33°10' W 117°44'21 8.3
2020-Apr-01 18:31N 33°19' W 118°06'510.1
2020-Apr-01 18:01N 33°24' W 118°08'9 9.1
2020-Apr-01 17:00N 33°33' W 118°12'5 9.3
2020-Apr-01 16:31N 33°37' W 118°13'6 0.9
2020-Apr-01 10:30N 33°42' W 118°09'0 0.0
2020-Apr-01 08:00N 33°42' W 118°09'0 0.0
2020-Apr-01 07:30N 33°42' W 118°09'0 0.0
2020-Mar-31 22:00N 33°42' W 118°09'0 0.0
2020-Mar-31 21:00N 33°42' W 118°09'0 0.0
2020-Mar-31 20:30N 33°42' W 118°09'0 0.0
2020-Mar-31 18:00N 33°42' W 118°09'0 0.0
2020-Mar-31 16:30N 33°42' W 118°09'0 0.0
2020-Mar-31 16:00N 33°42' W 118°09'4 0.8
2020-Mar-31 11:29N 33°45' W 118°11'0 0.0
2020-Mar-31 10:59N 33°45' W 118°11'0 0.0
2020-Mar-31 09:59N 33°45' W 118°11'0 0.0
2020-Mar-31 09:29N 33°45' W 118°11'0 0.0
2020-Mar-31 08:29N 33°45' W 118°11'0 0.0
2020-Mar-31 07:29N 33°45' W 118°11'0 0.0
2020-Mar-31 06:29N 33°45' W 118°11'0 0.0
2020-Mar-31 04:59N 33°45' W 118°11'0 0.0
2020-Mar-31 04:29N 33°45' W 118°11'0 0.0
2020-Mar-31 03:29N 33°45' W 118°11'0 0.0
2020-Mar-31 00:59N 33°45' W 118°11'0 0.0
2020-Mar-30 23:29N 33°45' W 118°11'0 0.0
2020-Mar-30 21:29N 33°45' W 118°11'0 0.0
2020-Mar-30 20:59N 33°45' W 118°11'0 0.0
2020-Mar-30 17:29N 33°45' W 118°11'0 0.0
2020-Mar-30 16:29N 33°45' W 118°11'0 0.0
2020-Mar-30 14:29N 33°45' W 118°11'0 0.0
2020-Mar-30 14:00N 33°45' W 118°11'11 5.6
2020-Mar-30 12:00N 33°34' W 118°09'10 6.8
2020-Mar-30 10:30N 33°24' W 118°05'15 7.5
2020-Mar-30 08:30N 33°13' W 117°54'4 7.6
2020-Mar-30 08:00N 33°10' W 117°50'7 3.3
2020-Mar-30 06:00N 33°10' W 117°58'3 5.1
2020-Mar-30 05:30N 33°12' W 118°01'4 3.9
2020-Mar-30 04:30N 33°13' W 117°56'9 3.5
2020-Mar-30 02:00N 33°10' W 117°47'2 3.6
2020-Mar-30 01:30N 33°09' W 117°46'12 3.9
2020-Mar-29 22:30N 32°57' W 117°43'8 7.8
2020-Mar-29 21:30N 33°05' W 117°43'7 6.8
2020-Mar-29 20:30N 33°11' W 117°47'8 7.8
2020-Mar-29 19:30N 33°15' W 117°55'4 7.7
2020-Mar-29 19:00N 33°16' W 117°59'8 7.9
2020-Mar-29 18:00N 33°21' W 118°07'4 8.8
2020-Mar-29 17:30N 33°25' W 118°09'9 9.0
2020-Mar-29 16:30N 33°34' W 118°12'8 4.1
2020-Mar-29 14:29N 33°41' W 118°09'0 0.0
2020-Mar-29 13:29N 33°41' W 118°09'0 0.0
2020-Mar-29 12:59N 33°41' W 118°09'0 0.0
2020-Mar-29 12:29N 33°41' W 118°09'0 0.0
2020-Mar-29 11:29N 33°41' W 118°09'0 0.0
2020-Mar-29 08:59N 33°41' W 118°09'0 0.0
2020-Mar-29 03:29N 33°41' W 118°09'0 0.0
2020-Mar-29 02:29N 33°41' W 118°09'0 0.0
2020-Mar-28 23:59N 33°41' W 118°09'0 0.0
2020-Mar-28 23:29N 33°41' W 118°09'0 0.0
2020-Mar-28 20:59N 33°41' W 118°09'0 0.0
2020-Mar-28 19:29N 33°41' W 118°09'0 0.0
2020-Mar-28 15:29N 33°41' W 118°09'0 0.0
2020-Mar-28 12:29N 33°41' W 118°09'0 0.0
2020-Mar-28 11:59N 33°41' W 118°09'0 0.0
2020-Mar-28 11:26N 33°41' W 118°09'0 0.0
2020-Mar-28 08:29N 33°41' W 118°09'0 0.0
2020-Mar-28 06:29N 33°41' W 118°09'0 0.0
2020-Mar-28 05:59N 33°41' W 118°09'0 0.0
2020-Mar-28 02:59N 33°41' W 118°09'0 0.0
2020-Mar-28 02:29N 33°41' W 118°09'0 0.0
2020-Mar-28 01:59N 33°41' W 118°09'0 0.0
2020-Mar-28 00:59N 33°41' W 118°09'0 0.0
2020-Mar-27 22:29N 33°41' W 118°09'0 0.0
2020-Mar-27 21:29N 33°41' W 118°09'0 0.0
2020-Mar-27 16:59N 33°41' W 118°09'0 0.0
2020-Mar-27 16:29N 33°41' W 118°09'0 0.1
2020-Mar-27 15:59N 33°41' W 118°09'2 1.7
2020-Mar-27 15:01N 33°40' W 118°09'12 7.8
2020-Mar-27 13:30N 33°28' W 118°06'8 8.0
2020-Mar-27 12:30N 33°21' W 118°03'4 7.5
2020-Mar-27 12:00N 33°18' W 118°00'12 7.9
2020-Mar-27 10:30N 33°09' W 117°51'4 7.5
2020-Mar-27 10:00N 33°06' W 117°48'13 6.3
2020-Mar-27 08:00N 32°55' W 117°40'16 7.9
2020-Mar-27 06:00N 33°06' W 117°53'3 1.2
2020-Mar-27 03:30N 33°04' W 117°51'8 1.3
2020-Mar-26 21:31N 32°57' W 117°46'4 8.8
2020-Mar-26 21:00N 33°01' W 117°49'  

Dump ship's entire track history